Time;durP1;ratioP1;P1;durP2;ratioP2;P2;SDS_P1;SDS_P2;PMS_P1;PMS_P2;Temp;Humidity;BMP_temperature;BMP_pressure;BME280_temperature;BME280_humidity;BME280_pressure;Samples;Min_cycle;Max_cycle;Signal;HPM_P1;HPM_P2
2022/05/09 00:01:56;;;;;;;3.15;2.60;;;;;;;;;;4975769;28;20058;-76
2022/05/09 00:04:23;;;;;;;3.58;2.08;;;;;;;;;;4975748;28;20073;-74
2022/05/09 00:06:49;;;;;;;2.80;2.58;;;;;;;;;;4972960;28;20026;-75
2022/05/09 00:09:16;;;;;;;2.67;1.67;;;;;;;;;;4971111;28;20042;-75
2022/05/09 00:11:42;;;;;;;4.15;3.13;;;;;;;;;;4975396;28;20030;-75
2022/05/09 00:14:08;;;;;;;3.65;2.45;;;13.40;85.50;;;;;;4975847;28;20515;-75
2022/05/09 00:16:35;;;;;;;6.63;2.63;;;;;;;;;;4975380;28;20027;-75
2022/05/09 00:19:03;;;;;;;3.35;2.17;;;;;;;;;;4974706;28;20192;-75
2022/05/09 00:21:31;;;;;;;2.28;1.98;;;13.30;85.90;;;;;;4974076;28;20031;-74
2022/05/09 00:23:57;;;;;;;3.55;2.35;;;;;;;;;;4990118;28;20061;-75
2022/05/09 00:26:27;;;;;;;3.95;2.95;;;;;;;;;;4982911;28;20026;-75
2022/05/09 00:28:53;;;;;;;2.17;1.98;;;;;;;;;;4980412;28;20034;-74
2022/05/09 00:31:19;;;;;;;3.10;2.40;;;;;;;;;;4977199;28;20031;-75
2022/05/09 00:33:45;;;;;;;3.70;2.22;;;;;;;;;;4972820;28;20031;-74
2022/05/09 00:36:12;;;;;;;2.78;2.13;;;;;;;;;;4972952;28;20130;-75
2022/05/09 00:38:38;;;;;;;5.25;2.95;;;;;;;;;;4989320;28;20100;-76
2022/05/09 00:43:48;;;;;;;1.90;1.70;;;;;;;;;;4975447;28;20046;-75
2022/05/09 00:46:14;;;;;;;2.13;1.65;;;;;;;;;;4975732;28;20034;-75
2022/05/09 00:48:40;;;;;;;2.42;2.22;;;;;;;;;;4971556;28;20029;-74
2022/05/09 00:51:07;;;;;;;2.65;2.00;;;;;;;;;;4988855;28;20097;-75
2022/05/09 00:53:36;;;;;;;4.45;2.30;;;12.90;87.30;;;;;;4972309;28;20107;-75
2022/05/09 00:56:05;;;;;;;3.83;2.28;;;;;;;;;;4982504;28;20117;-75
2022/05/09 00:58:41;;;;;;;3.17;2.25;;;12.90;86.80;;;;;;4980436;28;20061;-75
2022/05/09 01:01:10;;;;;;;2.88;2.42;;;13.00;87.40;;;;;;4974800;28;20188;-75
2022/05/09 01:03:39;;;;;;;3.72;2.20;;;;;;;;;;4972470;28;20038;-75
2022/05/09 01:06:05;;;;;;;3.58;2.40;;;;;;;;;;4969913;28;20038;-75
2022/05/09 01:08:32;;;;;;;5.68;3.17;;;;;;;;;;4975430;28;20404;-74
2022/05/09 01:10:59;;;;;;;4.93;2.60;;;;;;;;;;4974842;28;20085;-76
2022/05/09 01:13:27;;;;;;;4.22;2.30;;;;;;;;;;4976517;28;20452;-75
2022/05/09 01:15:53;;;;;;;;;;;;;;;;;;4973461;28;20029;-75
2022/05/09 01:18:19;;;;;;;2.63;2.13;;;;;;;;;;4972238;28;19914;-75
2022/05/09 01:20:45;;;;;;;56.88;10.73;;;;;;;;;;4974457;28;20041;-85
2022/05/09 01:23:11;;;;;;;1.98;1.77;;;;;;;;;;4976106;28;20022;-78
2022/05/09 01:25:38;;;;;;;3.20;2.40;;;;;;;;;;4974982;28;20039;-77
2022/05/09 01:28:04;;;;;;;5.00;2.58;;;;;;;;;;4974753;28;20030;-77
2022/05/09 01:30:43;;;;;;;5.18;2.03;;;;;;;;;;4977592;28;20431;-79
2022/05/09 01:33:35;;;;;;;3.70;2.50;;;;;;;;;;4985329;28;20026;-77
2022/05/09 01:36:05;;;;;;;2.50;1.90;;;;;;;;;;4985998;28;20061;-77
2022/05/09 01:38:33;;;;;;;4.93;3.00;;;;;;;;;;4974835;28;20114;-77
2022/05/09 01:40:59;;;;;;;3.30;2.45;;;;;;;;;;4974749;28;20093;-78
2022/05/09 01:43:57;;;;;;;5.40;2.25;;;;;;;;;;4975747;28;20085;-78
2022/05/09 01:46:26;;;;;;;3.50;2.42;;;12.40;90.30;;;;;;4977665;28;20440;-78
2022/05/09 01:51:39;;;;;;;2.90;2.10;;;;;;;;;;4985479;28;20080;-78
2022/05/09 01:54:05;;;;;;;3.70;2.30;;;;;;;;;;4973548;28;20562;-78
2022/05/09 01:56:32;;;;;;;2.22;2.00;;;;;;;;;;4972699;28;20089;-77
2022/05/09 01:58:59;;;;;;;2.78;2.55;;;;;;;;;;4972056;28;20033;-79
2022/05/09 02:01:26;;;;;;;3.03;2.42;;;;;;;;;;4974563;28;20077;-78
2022/05/09 02:03:53;;;;;;;3.55;2.50;;;;;;;;;;4972675;28;20042;-78
2022/05/09 02:06:20;;;;;;;3.28;2.85;;;;;;;;;;4971334;28;20512;-78
2022/05/09 02:08:47;;;;;;;4.82;2.88;;;;;;;;;;4985836;28;20106;-77
2022/05/09 02:11:13;;;;;;;6.60;4.32;;;;;;;;;;4973508;28;20027;-78
2022/05/09 02:13:39;;;;;;;2.28;1.83;;;;;;;;;;4974217;28;20035;-79
2022/05/09 02:16:05;;;;;;;5.97;4.07;;;;;;;;;;4974056;28;20031;-77
2022/05/09 02:18:35;;;;;;;3.00;1.95;;;;;;;;;;4970183;28;20038;-77
2022/05/09 02:21:01;;;;;;;3.70;2.22;;;;;;;;;;4985128;28;20057;-78
2022/05/09 02:23:27;;;;;;;2.50;1.77;;;;;;;;;;4975370;28;20062;-77
2022/05/09 02:25:53;;;;;;;3.65;2.78;;;;;;;;;;4978044;28;20462;-78
2022/05/09 02:28:21;;;;;;;5.22;3.25;;;;;;;;;;4974301;28;20034;-78
2022/05/09 02:30:48;;;;;;;3.30;2.97;;;;;;;;;;4982205;28;20034;-78
2022/05/09 02:33:14;;;;;;;2.87;2.20;;;;;;;;;;4981633;28;20022;-77
2022/05/09 02:35:40;;;;;;;4.22;2.42;;;;;;;;;;4974653;28;20606;-78
2022/05/09 02:38:06;;;;;;;3.73;3.03;;;;;;;;;;4977691;28;20022;-78
2022/05/09 02:40:36;;;;;;;6.68;2.40;;;;;;;;;;4978336;28;20034;-77
2022/05/09 02:43:02;;;;;;;2.78;2.05;;;;;;;;;;4976444;28;20397;-78
2022/05/09 02:45:29;;;;;;;4.05;2.13;;;;;;;;;;4974472;28;20121;-77
2022/05/09 02:47:55;;;;;;;2.50;2.30;;;;;;;;;;4972881;28;20022;-78
2022/05/09 02:50:22;;;;;;;3.53;2.85;;;;;;;;;;4977276;28;20114;-77
2022/05/09 02:52:48;;;;;;;3.85;2.78;;;;;;;;;;4977407;28;20046;-78
2022/05/09 02:55:14;;;;;;;4.78;2.40;;;;;;;;;;4981018;28;20113;-77
2022/05/09 02:57:40;;;;;;;4.00;2.10;;;;;;;;;;4973638;28;20078;-77
2022/05/09 03:00:08;;;;;;;3.65;2.92;;;;;;;;;;4975598;28;20026;-77
2022/05/09 03:02:35;;;;;;;4.13;2.70;;;;;;;;;;4975119;28;20054;-77
2022/05/09 03:05:01;;;;;;;4.18;2.42;;;;;;;;;;4977272;28;20500;-77
2022/05/09 03:07:27;;;;;;;3.42;2.22;;;;;;;;;;4977540;28;20812;-77
2022/05/09 03:09:53;;;;;;;2.13;1.85;;;;;;;;;;4975456;28;20039;-77
2022/05/09 03:12:19;;;;;;;5.35;2.33;;;;;;;;;;4974214;28;20884;-78
2022/05/09 03:14:46;;;;;;;3.28;2.47;;;;;;;;;;4976465;28;20038;-77
2022/05/09 03:17:12;;;;;;;3.20;2.28;;;;;;;;;;4976963;28;20023;-78
2022/05/09 03:19:38;;;;;;;4.55;2.80;;;;;;;;;;4977105;28;20031;-78
2022/05/09 03:22:04;;;;;;;3.33;2.58;;;;;;;;;;4976506;28;20033;-77
2022/05/09 03:24:30;;;;;;;3.90;2.53;;;;;;;;;;4972960;28;20031;-77
2022/05/09 03:26:59;;;;;;;5.18;2.30;;;;;;;;;;4976348;28;20034;-77
2022/05/09 03:29:25;;;;;;;4.65;2.78;;;;;;;;;;4978447;28;20026;-78
2022/05/09 03:31:52;;;;;;;1.83;1.73;;;;;;;;;;4985210;28;20035;-78
2022/05/09 03:34:18;;;;;;;3.45;2.80;;;;;;;;;;4976648;28;20527;-78
2022/05/09 03:36:44;;;;;;;3.58;2.05;;;;;;;;;;4974508;28;20113;-78
2022/05/09 03:39:10;;;;;;;2.22;1.80;;;;;;;;;;4990092;28;20153;-77
2022/05/09 03:41:37;;;;;;;3.13;2.53;;;;;;;;;;4975643;28;20196;-77
2022/05/09 03:44:03;;;;;;;2.65;2.45;;;;;;;;;;4976455;28;20508;-78
2022/05/09 03:46:29;;;;;;;4.05;2.42;;;;;;;;;;4976750;28;20508;-78
2022/05/09 03:48:55;;;;;;;4.22;2.80;;;;;;;;;;4975212;28;20026;-77
2022/05/09 03:51:21;;;;;;;5.93;2.42;;;;;;;;;;4973327;28;20117;-78
2022/05/09 03:53:47;;;;;;;3.35;2.28;;;;;;;;;;4976058;28;20031;-77
2022/05/09 03:56:13;;;;;;;4.68;2.00;;;;;;;;;;4976944;28;20488;-77
2022/05/09 03:58:40;;;;;;;3.60;2.13;;;;;;;;;;4977518;28;20035;-78
2022/05/09 04:01:08;;;;;;;3.97;2.27;;;;;;;;;;4976341;28;20109;-78
2022/05/09 04:03:34;;;;;;;3.42;1.88;;;;;;;;;;4972259;28;20453;-78
2022/05/09 04:06:00;;;;;;;2.47;2.20;;;;;;;;;;4975687;28;20042;-78
2022/05/09 04:08:26;;;;;;;4.38;2.20;;;;;;;;;;4975778;28;20057;-77
2022/05/09 04:10:54;;;;;;;3.08;2.55;;;11.10;92.40;;;;;;4976111;28;20078;-78
2022/05/09 04:13:20;;;;;;;3.88;2.47;;;;;;;;;;4975947;28;20101;-79
2022/05/09 04:18:42;;;;;;;2.45;2.25;;;;;;;;;;4973099;28;20085;-77
2022/05/09 04:21:10;;;;;;;3.47;2.60;;;11.60;90.40;;;;;;4986508;28;20038;-78
2022/05/09 04:23:37;;;;;;;5.43;3.08;;;;;;;;;;4975100;28;20058;-77
2022/05/09 04:26:04;;;;;;;4.78;2.88;;;;;;;;;;4973615;28;20122;-77
2022/05/09 04:28:31;;;;;;;3.40;2.60;;;;;;;;;;4976367;28;20038;-78
2022/05/09 04:30:57;;;;;;;4.75;2.83;;;;;;;;;;4982800;28;20034;-78
2022/05/09 04:33:23;;;;;;;4.93;3.42;;;;;;;;;;4973022;28;20119;-77
2022/05/09 04:35:49;;;;;;;10.68;3.20;;;;;;;;;;4990312;28;20507;-78
2022/05/09 04:38:21;;;;;;;3.22;2.47;;;;;;;;;;4977434;28;20027;-77
2022/05/09 04:40:51;;;;;;;4.97;3.00;;;;;;;;;;4976712;28;20058;-78
2022/05/09 04:43:17;;;;;;;11.88;2.67;;;;;;;;;;4973315;28;20129;-78
2022/05/09 04:45:43;;;;;;;3.10;2.53;;;;;;;;;;4973024;28;20038;-78
2022/05/09 04:48:09;;;;;;;4.07;3.25;;;;;;;;;;4970575;28;20101;-77
2022/05/09 04:50:35;;;;;;;5.70;2.78;;;;;;;;;;4983091;28;20492;-77
2022/05/09 04:53:02;;;;;;;5.10;3.50;;;;;;;;;;4982146;28;20057;-76
2022/05/09 04:55:28;;;;;;;5.13;3.35;;;;;;;;;;4983878;28;20048;-78
2022/05/09 04:57:55;;;;;;;11.48;4.43;;;;;;;;;;4973973;28;20026;-77
2022/05/09 05:00:22;;;;;;;3.92;2.78;;;;;;;;;;4972510;28;20097;-77
2022/05/09 05:02:48;;;;;;;4.82;3.22;;;;;;;;;;4988604;28;20121;-77
2022/05/09 05:05:14;;;;;;;4.15;2.60;;;;;;;;;;4982104;28;20035;-78
2022/05/09 05:07:40;;;;;;;4.50;3.10;;;;;;;;;;4976056;28;20035;-79
2022/05/09 05:10:07;;;;;;;6.72;2.70;;;;;;;;;;4987453;28;20041;-78
2022/05/09 05:12:33;;;;;;;10.60;2.75;;;;;;;;;;4984733;28;20114;-78
2022/05/09 05:15:00;;;;;;;3.53;3.00;;;;;;;;;;4976701;28;20037;-78
2022/05/09 05:17:26;;;;;;;4.43;3.40;;;;;;;;;;4983739;28;20412;-76
2022/05/09 05:19:52;;;;;;;3.42;3.13;;;;;;;;;;4981547;28;20030;-77
2022/05/09 05:22:18;;;;;;;3.30;2.63;;;;;;;;;;4977846;28;20041;-77
2022/05/09 05:24:45;;;;;;;3.85;3.10;;;;;;;;;;4983680;28;20077;-79
2022/05/09 05:27:12;;;;;;;3.40;2.80;;;;;;;;;;4973094;28;20485;-78
2022/05/09 05:29:38;;;;;;;8.25;3.58;;;12.30;93.80;;;;;;4981810;28;20034;-78
2022/05/09 05:32:20;;;;;;;3.50;2.85;;;;;;;;;;4981871;28;20038;-79
2022/05/09 05:34:47;;;;;;;4.68;3.00;;;;;;;;;;4982196;28;20057;-78
2022/05/09 05:37:13;;;;;;;4.40;3.25;;;;;;;;;;4982061;28;20125;-78
2022/05/09 05:39:41;;;;;;;4.72;2.95;;;;;;;;;;4983151;28;20125;-77
2022/05/09 05:42:07;;;;;;;4.78;2.95;;;;;;;;;;4984572;28;20046;-78
2022/05/09 05:44:34;;;;;;;4.53;3.35;;;;;;;;;;4987459;28;20846;-78
2022/05/09 05:47:04;;;;;;;4.70;3.75;;;;;;;;;;4982087;28;20061;-79
2022/05/09 05:49:30;;;;;;;5.03;3.05;;;;;;;;;;4985827;28;20045;-78
2022/05/09 05:51:59;;;;;;;3.97;3.33;;;;;;;;;;4983584;28;20452;-77
2022/05/09 05:54:27;;;;;;;10.75;3.55;;;;;;;;;;4974501;28;20042;-78
2022/05/09 05:56:53;;;;;;;6.15;3.08;;;;;;;;;;4983304;28;20030;-78
2022/05/09 05:59:19;;;;;;;4.38;2.97;;;;;;;;;;4987073;28;20507;-77
2022/05/09 06:01:45;;;;;;;5.72;3.20;;;;;;;;;;4991823;28;20027;-78
2022/05/09 06:04:11;;;;;;;7.40;3.33;;;;;;;;;;4990276;28;20038;-78
2022/05/09 06:06:37;;;;;;;4.65;3.58;;;;;;;;;;4975871;28;20515;-78
2022/05/09 06:09:05;;;;;;;4.55;3.05;;;;;;;;;;4976703;28;20037;-77
2022/05/09 06:11:31;;;;;;;5.60;3.22;;;;;;;;;;4986730;28;20022;-67
2022/05/09 06:13:57;;;;;;;5.05;3.10;;;;;;;;;;4986542;28;20034;-67
2022/05/09 06:16:23;;;;;;;7.30;3.75;;;;;;;;;;4988951;28;20491;-67
2022/05/09 06:18:52;;;;;;;6.03;3.30;;;;;;;;;;4974699;28;20027;-68
2022/05/09 06:21:18;;;;;;;3.40;2.55;;;;;;;;;;4988193;28;20031;-68
2022/05/09 06:23:44;;;;;;;4.25;3.20;;;;;;;;;;4985671;28;20505;-68
2022/05/09 06:26:13;;;;;;;6.10;3.55;;;;;;;;;;4986453;28;20084;-67
2022/05/09 06:28:39;;;;;;;4.25;2.80;;;;;;;;;;4986003;28;20484;-68
2022/05/09 06:31:06;;;;;;;5.13;3.88;;;;;;;;;;4985418;28;20023;-67
2022/05/09 06:33:32;;;;;;;4.43;3.00;;;;;;;;;;4974729;28;20034;-67
2022/05/09 06:35:59;;;;;;;5.30;3.00;;;15.80;86.30;;;;;;4982391;28;20037;-68
2022/05/09 06:38:27;;;;;;;;;;;;;;;;;;4979096;28;20619;-62
2022/05/09 06:40:54;;;;;;;4.07;2.53;;;16.50;83.50;;;;;;4976587;28;20000;-61
2022/05/09 06:43:22;;;;;;;2.88;2.20;;;16.70;93.20;;;;;;4983722;28;20046;-61
2022/05/09 06:45:49;;;;;;;10.15;4.45;;;;;;;;;;4989513;28;20043;-62
2022/05/09 06:48:15;;;;;;;4.38;2.97;;;18.00;94.50;;;;;;4983175;28;20027;-63
2022/05/09 06:50:41;;;;;;;4.13;2.60;;;;;;;;;;4985635;28;20165;-62
2022/05/09 06:53:08;;;;;;;3.87;2.53;;;;;;;;;;4980663;28;20688;-64
2022/05/09 06:55:33;;;;;;;4.40;2.90;;;21.60;87.20;;;;;;4986384;28;20030;-63
2022/05/09 06:57:59;;;;;;;4.40;2.20;;;22.90;82.00;;;;;;4982959;28;20027;-64
2022/05/09 07:00:26;;;;;;;2.90;2.27;;;;;;;;;;5000334;28;20049;-65
2022/05/09 07:02:52;;;;;;;4.07;2.22;;;;;;;;;;4980877;28;20179;-67
2022/05/09 07:05:20;;;;;;;4.53;1.88;;;25.00;54.60;;;;;;4984634;28;20095;-66
2022/05/09 07:07:48;;;;;;;3.08;2.10;;;;;;;;;;4979625;28;20034;-66
2022/05/09 07:10:14;;;;;;;3.10;2.22;;;26.70;50.70;;;;;;4986418;28;20113;-68
2022/05/09 07:12:59;;;;;;;3.13;2.25;;;;;;;;;;4980262;28;20072;-67
2022/05/09 07:15:27;;;;;;;1.58;1.33;;;;;;;;;;4986079;28;20039;-67
2022/05/09 07:17:54;;;;;;;5.95;2.13;;;;;;;;;;4985777;28;21159;-66
2022/05/09 07:20:21;;;;;;;2.67;1.92;;;27.10;65.40;;;;;;4985345;28;20412;-66
2022/05/09 07:22:48;;;;;;;2.88;1.92;;;27.70;47.20;;;;;;4977755;28;20030;-68
2022/05/09 07:25:16;;;;;;;4.28;2.03;;;27.40;46.90;;;;;;4984391;28;20775;-67
2022/05/09 07:27:42;;;;;;;6.90;2.08;;;;;;;;;;4984115;28;20037;-68
2022/05/09 07:30:19;;;;;;;3.58;2.05;;;;;;;;;;4981547;28;20037;-67
2022/05/09 07:32:46;;;;;;;3.10;2.08;;;28.50;62.00;;;;;;4977800;28;20026;-68
2022/05/09 07:35:14;;;;;;;8.02;2.15;;;28.70;44.10;;;;;;4987028;28;20038;-68
2022/05/09 07:37:40;;;;;;;3.88;2.60;;;;;;;;;;4985401;28;20034;-66
2022/05/09 07:40:07;;;;;;;;;;;;;;;;;;4983719;28;20027;-67
2022/05/09 07:42:34;;;;;;;5.03;2.03;;;;;;;;;;4980395;28;19932;-68
2022/05/09 07:45:00;;;;;;;5.22;2.70;;;;;;;;;;4984100;28;20034;-70
2022/05/09 07:47:26;;;;;;;2.88;2.00;;;;;;;;;;4980288;28;20023;-70
2022/05/09 07:49:52;;;;;;;7.82;3.45;;;;;;;;;;4980604;28;20650;-69
2022/05/09 07:52:19;;;;;;;3.17;1.92;;;;;;;;;;4984249;28;20034;-71
2022/05/09 07:54:46;;;;;;;;;;;30.00;42.30;;;;;;4982146;28;20034;-67
2022/05/09 07:57:12;;;;;;;2.17;1.80;;;;;;;;;;4984318;28;19905;-66
2022/05/09 07:59:38;;;;;;;4.30;2.63;;;;;;;;;;4988986;28;20523;-68
2022/05/09 08:02:04;;;;;;;6.18;2.63;;;;;;;;;;4983756;28;20069;-67
2022/05/09 08:04:30;;;;;;;2.58;1.80;;;;;;;;;;4978858;28;20046;-70
2022/05/09 08:06:56;;;;;;;4.13;1.90;;;;;;;;;;4984931;28;20041;-69
2022/05/09 08:09:22;;;;;;;3.25;2.05;;;;;;;;;;4985239;28;20037;-68
2022/05/09 08:11:48;;;;;;;3.15;2.25;;;;;;;;;;4983259;28;20042;-68
2022/05/09 08:14:14;;;;;;;3.35;2.08;;;;;;;;;;4979132;28;20049;-68
2022/05/09 08:16:40;;;;;;;4.00;3.03;;;29.30;42.40;;;;;;4984913;28;20562;-67
2022/05/09 08:19:06;;;;;;;4.07;2.50;;;;;;;;;;4981262;28;20042;-66
2022/05/09 08:21:33;;;;;;;4.03;2.28;;;;;;;;;;4981975;28;20026;-68
2022/05/09 08:24:00;;;;;;;2.47;1.98;;;;;;;;;;4977337;28;20069;-67
2022/05/09 08:26:26;;;;;;;5.47;3.13;;;;;;;;;;4985346;28;20113;-69
2022/05/09 08:28:53;;;;;;;3.22;2.13;;;;;;;;;;4981932;28;20444;-68
2022/05/09 08:31:20;;;;;;;5.32;2.10;;;;;;;;;;4984612;28;20034;-66
2022/05/09 08:33:48;;;;;;;4.18;1.92;;;;;;;;;;4977430;28;20036;-67
2022/05/09 08:36:45;;;;;;;4.68;2.10;;;;;;;;;;4985616;28;20034;-67
2022/05/09 08:39:00;;;;;;;3.10;2.25;;;;;;;;;;4985321;28;20038;-67
2022/05/09 08:41:28;;;;;;;2.92;2.10;;;;;;;;;;4984554;28;20034;-68
2022/05/09 08:44:18;;;;;;;3.13;2.33;;;31.00;39.60;;;;;;4979516;28;20033;-67
2022/05/09 08:46:44;;;;;;;2.83;2.03;;;;;;;;;;4978647;28;20046;-66
2022/05/09 08:49:16;;;;;;;2.92;1.90;;;;;;;;;;4982690;28;20026;-67
2022/05/09 08:51:58;;;;;;;4.32;2.53;;;31.70;39.30;;;;;;4984855;28;20034;-68
2022/05/09 08:54:25;;;;;;;4.05;2.28;;;;;;;;;;4977667;28;20026;-66
2022/05/09 08:56:58;;;;;;;2.80;2.00;;;31.30;39.60;;;;;;4996318;28;20169;-66
2022/05/09 08:59:33;;;;;;;7.28;2.88;;;32.00;38.30;;;;;;4983029;28;20037;-67
2022/05/09 09:02:06;;;;;;;5.55;1.95;;;;;;;;;;4980783;28;20488;-67
2022/05/09 09:04:33;;;;;;;8.43;1.88;;;;;;;;;;4977193;28;20065;-66
2022/05/09 09:07:18;;;;;;;2.58;1.45;;;32.70;36.00;;;;;;4982830;28;20033;-68
2022/05/09 09:10:17;;;;;;;14.15;2.22;;;31.90;38.30;;;;;;4982152;28;20030;-67
2022/05/09 09:13:19;;;;;;;2.63;1.50;;;;;;;;;;4977181;28;20515;-68
2022/05/09 09:16:15;;;;;;;4.38;2.40;;;31.30;38.70;;;;;;4962344;28;20046;-69
2022/05/09 09:18:47;;;;;;;5.55;2.22;;;;;;;;;;4967195;28;20568;-64
2022/05/09 09:21:24;;;;;;;2.72;1.98;;;;;;;;;;4963346;28;20034;-66
2022/05/09 09:23:55;;;;;;;3.22;2.40;;;32.80;37.20;;;;;;4956171;28;20029;-66
2022/05/09 09:26:35;;;;;;;3.80;2.25;;;33.20;37.20;;;;;;4963547;28;20047;-67
2022/05/09 09:29:14;;;;;;;4.38;2.08;;;;;;;;;;4965310;28;20038;-66
2022/05/09 09:31:44;;;;;;;4.10;2.28;;;;;;;;;;4965412;28;20089;-66
2022/05/09 09:34:47;;;;;;;2.13;1.40;;;33.90;35.70;;;;;;4958160;28;21335;-67
2022/05/09 09:37:26;;;;;;;3.55;1.50;;;34.60;35.20;;;;;;4968537;28;20125;-67
2022/05/09 09:39:52;;;;;;;8.23;1.90;;;;;;;;;;4967918;28;20118;-67
2022/05/09 09:42:18;;;;;;;4.82;1.60;;;;;;;;;;4962781;28;20106;-67
2022/05/09 09:44:46;;;;;;;2.58;1.67;;;34.80;37.50;;;;;;4962685;28;20584;-67
2022/05/09 09:47:27;;;;;;;1.95;1.40;;;34.50;35.50;;;;;;4965756;28;20030;-67
2022/05/09 09:50:25;;;;;;;3.45;1.73;;;33.60;34.90;;;;;;4965048;28;20031;-68
2022/05/09 09:52:52;;;;;;;2.38;1.83;;;34.50;34.70;;;;;;4978532;28;20038;-67
2022/05/09 09:55:28;;;;;;;3.60;1.35;;;34.10;34.40;;;;;;4989545;28;20049;-68
2022/05/09 09:57:56;;;;;;;5.85;1.40;;;33.70;35.60;;;;;;4986101;28;20022;-67
2022/05/09 10:00:29;;;;;;;3.92;1.90;;;33.90;34.70;;;;;;5000665;28;20030;-68
2022/05/09 10:02:56;;;;;;;3.08;2.03;;;;;;;;;;4979607;28;20042;-68
2022/05/09 10:05:32;;;;;;;2.55;2.08;;;;;;;;;;4986218;28;20647;-68
2022/05/09 10:07:58;;;;;;;2.78;1.85;;;;;;;;;;4985090;28;20478;-67
2022/05/09 10:10:26;;;;;;;2.33;1.67;;;33.50;37.20;;;;;;4985200;28;20102;-67
2022/05/09 10:12:54;;;;;;;3.53;1.60;;;;;;;;;;4980177;28;20034;-69
2022/05/09 10:15:20;;;;;;;2.88;2.30;;;;;;;;;;4989105;28;20030;-69
2022/05/09 10:17:46;;;;;;;3.15;2.25;;;;;;;;;;4989881;28;20034;-69
2022/05/09 10:20:29;;;;;;;4.63;1.52;;;33.40;35.10;;;;;;4984749;28;20038;-68
2022/05/09 10:25:59;;;;;;;2.20;1.50;;;;;;;;;;4986622;28;20615;-69
2022/05/09 10:28:28;;;;;;;2.28;1.65;;;33.20;53.90;;;;;;4986956;28;20069;-68
2022/05/09 10:30:56;;;;;;;5.85;2.17;;;;;;;;;;4987176;28;20066;-67
2022/05/09 10:33:38;;;;;;;5.90;2.05;;;;;;;;;;4975895;28;20118;-67
2022/05/09 10:36:17;;;;;;;4.22;2.17;;;;;;;;;;4986960;28;20042;-69
2022/05/09 10:38:43;;;;;;;2.50;1.90;;;;;;;;;;4984364;28;20512;-69
2022/05/09 10:41:28;;;;;;;2.78;1.73;;;;;;;;;;4986703;28;20400;-69
2022/05/09 10:44:04;;;;;;;1.67;1.35;;;;;;;;;;4978642;28;20034;-68
2022/05/09 10:46:49;;;;;;;3.15;2.72;;;;;;;;;;4984941;28;20034;-69
2022/05/09 10:49:27;;;;;;;2.70;1.77;;;30.00;40.90;;;;;;4990380;28;20151;-68
2022/05/09 10:51:53;;;;;;;3.53;1.60;;;;;;;;;;4986329;28;20118;-69
2022/05/09 10:54:25;;;;;;;4.43;2.10;;;;;;;;;;4979871;28;20551;-69
2022/05/09 10:56:54;;;;;;;4.20;1.77;;;29.20;46.80;;;;;;4987063;28;20392;-69
2022/05/09 10:59:23;;;;;;;2.97;2.33;;;;;;;;;;4986813;28;20022;-71
2022/05/09 11:01:50;;;;;;;4.28;2.78;;;;;;;;;;4985806;28;20057;-65
2022/05/09 11:04:17;;;;;;;3.70;2.20;;;;;;;;;;4979332;28;20574;-66
2022/05/09 11:06:52;;;;;;;2.45;1.88;;;;;;;;;;4986069;28;20800;-67
2022/05/09 11:09:50;;;;;;;5.75;2.72;;;28.70;42.70;;;;;;4986180;28;20048;-66
2022/05/09 11:12:22;;;;;;;2.90;2.15;;;;;;;;;;5018336;28;20037;-67
2022/05/09 11:15:06;;;;;;;2.95;1.33;;;;;;;;;;5020643;28;20183;-66
2022/05/09 11:17:38;;;;;;;6.18;1.90;;;28.00;42.40;;;;;;5023401;28;20056;-66
2022/05/09 11:20:07;;;;;;;3.65;2.50;;;;;;;;;;5019525;28;20033;-65
2022/05/09 11:22:37;;;;;;;5.60;2.15;;;;;;;;;;5016821;28;20144;-67
2022/05/09 11:25:26;;;;;;;7.45;2.05;;;27.10;45.10;;;;;;5021627;28;20140;-67
2022/05/09 11:27:52;;;;;;;3.25;2.20;;;;;;;;;;5014405;28;20033;-69
2022/05/09 11:30:26;;;;;;;2.70;1.52;;;;;;;;;;5016239;28;20037;-68
2022/05/09 11:33:11;;;;;;;2.92;2.03;;;;;;;;;;5015445;28;20048;-71
2022/05/09 11:35:37;;;;;;;3.33;2.05;;;;;;;;;;5020454;28;20045;-68
2022/05/09 11:38:22;;;;;;;2.10;1.50;;;26.10;48.10;;;;;;5021383;28;20025;-70
2022/05/09 11:41:14;;;;;;;3.42;2.47;;;;;;;;;;5022660;28;20614;-69
2022/05/09 11:43:40;;;;;;;2.55;1.70;;;;;;;;;;4955505;28;20051;-70
2022/05/09 11:46:21;;;;;;;3.40;2.00;;;;;;;;;;4962529;28;20035;-70
2022/05/09 11:49:04;;;;;;;5.28;1.95;;;;;;;;;;4956584;28;20043;-70
2022/05/09 11:51:33;;;;;;;2.40;1.67;;;;;;;;;;4925449;29;20672;-70
2022/05/09 11:54:05;;;;;;;3.55;1.73;;;;;;;;;;4936689;28;20126;-69
2022/05/09 11:56:32;;;;;;;2.90;1.70;;;;;;;;;;4943149;28;20050;-70
2022/05/09 11:58:58;;;;;;;4.40;1.92;;;;;;;;;;4943220;29;20054;-70
2022/05/09 12:01:43;;;;;;;4.03;2.30;;;;;;;;;;4940483;29;20131;-70
2022/05/09 12:04:27;;;;;;;1.98;1.45;;;25.90;48.80;;;;;;4935904;29;20031;-71
2022/05/09 12:06:53;;;;;;;3.58;1.98;;;;;;;;;;4937571;29;20587;-71
2022/05/09 12:09:39;;;;;;;3.37;1.53;;;;;;;;;;4943073;28;20027;-70
2022/05/09 12:12:06;;;;;;;2.97;1.70;;;;;;;;;;4941067;29;20031;-71
2022/05/09 12:14:50;;;;;;;2.50;1.70;;;;;;;;;;4938447;29;20640;-70
2022/05/09 12:17:18;;;;;;;3.25;2.05;;;;;;;;;;4942995;29;20035;-71
2022/05/09 12:19:44;;;;;;;3.08;1.60;;;;;;;;;;4950739;28;20055;-71
2022/05/09 12:22:28;;;;;;;3.63;1.58;;;;;;;;;;4980427;28;20672;-70
2022/05/09 12:24:56;;;;;;;2.45;1.63;;;;;;;;;;4981738;28;20488;-70
2022/05/09 12:27:41;;;;;;;1.75;1.25;;;;;;;;;;4983344;28;20106;-70
2022/05/09 12:30:25;;;;;;;3.35;1.83;;;;;;;;;;4982780;28;20037;-70
2022/05/09 12:32:51;;;;;;;2.15;1.25;;;;;;;;;;4976115;28;20160;-71
2022/05/09 12:35:18;;;;;;;2.17;1.27;;;;;;;;;;4982746;28;20038;-70
2022/05/09 12:37:46;;;;;;;6.53;1.33;;;;;;;;;;4983414;28;20399;-71
2022/05/09 12:40:20;;;;;;;2.35;1.45;;;24.60;49.00;;;;;;4984608;28;20784;-70
2022/05/09 12:42:48;;;;;;;3.55;2.03;;;;;;;;;;4977528;28;20058;-71
2022/05/09 12:45:15;;;;;;;2.05;1.70;;;;;;;;;;4987547;28;20026;-70
2022/05/09 12:47:41;;;;;;;2.70;1.83;;;;;;;;;;4981152;28;20603;-70
2022/05/09 12:50:07;;;;;;;2.50;1.90;;;;;;;;;;4982182;28;21182;-71
2022/05/09 12:52:36;;;;;;;2.80;1.80;;;;;;;;;;4976431;28;20026;-71
2022/05/09 12:57:47;;;;;;;2.47;1.20;;;;;;;;;;4980586;28;20097;-71
2022/05/09 13:00:18;;;;;;;3.05;1.65;;;;;;;;;;4984431;28;20045;-71
2022/05/09 13:02:46;;;;;;;3.15;2.03;;;;;;;;;;4978845;28;20061;-71
2022/05/09 13:05:13;;;;;;;3.17;1.70;;;;;;;;;;4978066;28;20049;-70
2022/05/09 13:07:59;;;;;;;2.60;1.27;;;;;;;;;;4984671;28;20072;-68
2022/05/09 13:10:25;;;;;;;2.05;1.45;;;;;;;;;;4982227;28;20038;-68
2022/05/09 13:12:57;;;;;;;3.05;1.83;;;;;;;;;;4978628;28;20052;-67
2022/05/09 13:15:23;;;;;;;2.00;1.38;;;;;;;;;;4982802;28;21074;-68
2022/05/09 13:18:01;;;;;;;3.85;1.85;;;24.90;51.70;;;;;;4986025;28;20034;-67
2022/05/09 13:20:29;;;;;;;2.42;1.65;;;;;;;;;;4980788;28;20046;-68
2022/05/09 13:23:02;;;;;;;1.33;1.15;;;;;;;;;;4978543;28;20027;-69
2022/05/09 13:25:36;;;;;;;3.00;2.05;;;24.50;50.40;;;;;;4977678;28;20058;-67
2022/05/09 13:28:09;;;;;;;3.13;1.67;;;24.10;48.60;;;;;;4983840;28;20109;-70
2022/05/09 13:30:40;;;;;;;2.17;1.45;;;;;;;;;;4979876;28;20034;-66
2022/05/09 13:33:06;;;;;;;3.50;1.73;;;;;;;;;;4976694;28;20030;-67
2022/05/09 13:35:34;;;;;;;2.40;1.60;;;;;;;;;;4981175;28;20436;-68
2022/05/09 13:38:16;;;;;;;2.15;1.67;;;;;;;;;;4983609;28;20022;-64
2022/05/09 13:40:42;;;;;;;3.33;2.03;;;;;;;;;;4984838;28;20046;-67
2022/05/09 13:43:08;;;;;;;3.90;2.38;;;;;;;;;;4977267;28;20046;-70
2022/05/09 13:45:34;;;;;;;2.78;1.77;;;;;;;;;;4983945;28;20488;-68
2022/05/09 13:48:06;;;;;;;5.10;2.58;;;;;;;;;;4984563;28;20083;-68
2022/05/09 13:50:41;;;;;;;3.17;1.85;;;23.30;53.00;;;;;;4982960;28;20026;-68
2022/05/09 13:53:13;;;;;;;2.67;2.03;;;;;;;;;;4973764;28;20606;-68
2022/05/09 13:55:43;;;;;;;2.80;1.83;;;;;;;;;;4984448;28;20124;-68
2022/05/09 13:58:12;;;;;;;3.33;2.15;;;;;;;;;;4979717;28;20038;-70
2022/05/09 14:00:40;;;;;;;3.63;2.45;;;;;;;;;;4981712;28;20109;-68
2022/05/09 14:03:12;;;;;;;4.32;2.55;;;;;;;;;;4977732;28;20080;-68
2022/05/09 14:05:39;;;;;;;4.22;2.13;;;;;;;;;;4982491;28;20039;-69
2022/05/09 14:08:06;;;;;;;3.55;2.45;;;;;;;;;;4981060;28;20038;-69
2022/05/09 14:10:42;;;;;;;6.13;2.65;;;23.00;55.00;;;;;;4981736;28;20101;-68
2022/05/09 14:13:24;;;;;;;2.47;2.05;;;;;;;;;;4976901;28;20042;-68
2022/05/09 14:15:55;;;;;;;3.40;1.88;;;;;;;;;;4976541;28;20046;-69
2022/05/09 14:18:22;;;;;;;2.75;1.88;;;;;;;;;;4983858;28;20046;-67
2022/05/09 14:20:48;;;;;;;3.28;2.10;;;;;;;;;;4980435;28;20109;-68
2022/05/09 14:23:17;;;;;;;2.50;2.05;;;;;;;;;;4977480;28;20061;-68
2022/05/09 14:31:24;;;;;;;3.65;2.03;;;;;;;;;;4987503;28;20033;-68
2022/05/09 14:33:50;;;;;;;2.97;1.88;;;;;;;;;;4977144;28;20069;-68
2022/05/09 14:36:27;;;;;;;2.88;1.95;;;;;;;;;;4989145;28;20049;-68
2022/05/09 14:38:54;;;;;;;5.90;2.15;;;;;;;;;;4986901;28;20031;-69
2022/05/09 14:44:24;;;;;;;3.17;1.95;;;24.10;52.30;;;;;;4979194;28;20367;-70
2022/05/09 14:46:56;;;;;;;2.65;1.60;;;;;;;;;;4983233;28;20092;-66
2022/05/09 14:49:22;;;;;;;3.47;2.25;;;;;;;;;;4985938;28;20443;-67
2022/05/09 14:52:06;;;;;;;2.75;1.80;;;;;;;;;;4984606;28;20672;-67
2022/05/09 14:54:40;;;;;;;3.33;1.50;;;;;;;;;;4981081;28;20061;-66
2022/05/09 14:57:25;;;;;;;3.72;1.85;;;23.60;53.70;;;;;;4994084;28;20042;-68
2022/05/09 14:59:51;;;;;;;3.92;2.05;;;;;;;;;;4982235;28;20026;-67